sensor_id;sensor_type;location;lat;lon;timestamp;temperature;humidity
43772;HTU21D;59066;54.782;32.024;2023-10-13T00:00:31;8.83;92.26
43772;HTU21D;59066;54.782;32.024;2023-10-13T00:03:04;8.85;92.38
43772;HTU21D;59066;54.782;32.024;2023-10-13T00:05:34;8.78;92.37
43772;HTU21D;59066;54.782;32.024;2023-10-13T00:08:02;8.85;92.55
43772;HTU21D;59066;54.782;32.024;2023-10-13T00:10:32;8.87;92.41
43772;HTU21D;59066;54.782;32.024;2023-10-13T00:13:01;8.76;92.43
43772;HTU21D;59066;54.782;32.024;2023-10-13T00:15:47;8.77;92.72
43772;HTU21D;59066;54.782;32.024;2023-10-13T00:18:27;8.77;92.52
43772;HTU21D;59066;54.782;32.024;2023-10-13T00:21:01;8.78;92.69
43772;HTU21D;59066;54.782;32.024;2023-10-13T00:23:40;8.80;92.54
43772;HTU21D;59066;54.782;32.024;2023-10-13T00:26:25;8.80;92.57
43772;HTU21D;59066;54.782;32.024;2023-10-13T00:29:02;8.77;92.43
43772;HTU21D;59066;54.782;32.024;2023-10-13T00:31:38;8.77;92.17
43772;HTU21D;59066;54.782;32.024;2023-10-13T00:34:11;8.85;92.15
43772;HTU21D;59066;54.782;32.024;2023-10-13T00:36:40;8.83;92.01
43772;HTU21D;59066;54.782;32.024;2023-10-13T00:39:37;8.82;91.84
43772;HTU21D;59066;54.782;32.024;2023-10-13T00:42:07;8.82;91.81
43772;HTU21D;59066;54.782;32.024;2023-10-13T00:44:35;8.81;91.71
43772;HTU21D;59066;54.782;32.024;2023-10-13T00:47:10;8.83;91.80
43772;HTU21D;59066;54.782;32.024;2023-10-13T00:49:45;8.91;91.54
43772;HTU21D;59066;54.782;32.024;2023-10-13T00:52:16;8.91;90.89
43772;HTU21D;59066;54.782;32.024;2023-10-13T00:54:45;8.94;90.95
43772;HTU21D;59066;54.782;32.024;2023-10-13T00:57:14;8.94;90.66
43772;HTU21D;59066;54.782;32.024;2023-10-13T00:59:56;8.92;90.53
43772;HTU21D;59066;54.782;32.024;2023-10-13T01:02:39;8.94;90.24
43772;HTU21D;59066;54.782;32.024;2023-10-13T01:05:08;8.91;90.21
43772;HTU21D;59066;54.782;32.024;2023-10-13T01:07:38;8.90;90.49
43772;HTU21D;59066;54.782;32.024;2023-10-13T01:10:10;8.89;90.42
43772;HTU21D;59066;54.782;32.024;2023-10-13T01:12:42;8.94;90.33
43772;HTU21D;59066;54.782;32.024;2023-10-13T01:15:10;8.91;90.26
43772;HTU21D;59066;54.782;32.024;2023-10-13T01:17:40;8.96;89.86
43772;HTU21D;59066;54.782;32.024;2023-10-13T01:20:08;8.98;89.93
43772;HTU21D;59066;54.782;32.024;2023-10-13T01:22:38;8.94;89.54
43772;HTU21D;59066;54.782;32.024;2023-10-13T01:25:06;8.96;89.86
43772;HTU21D;59066;54.782;32.024;2023-10-13T01:27:40;9.01;89.78
43772;HTU21D;59066;54.782;32.024;2023-10-13T01:30:08;8.94;89.64
43772;HTU21D;59066;54.782;32.024;2023-10-13T01:32:51;8.92;89.56
43772;HTU21D;59066;54.782;32.024;2023-10-13T01:35:21;8.89;89.76
43772;HTU21D;59066;54.782;32.024;2023-10-13T01:38:04;8.88;89.85
43772;HTU21D;59066;54.782;32.024;2023-10-13T01:40:31;8.93;89.61
43772;HTU21D;59066;54.782;32.024;2023-10-13T01:43:01;8.86;89.64
43772;HTU21D;59066;54.782;32.024;2023-10-13T01:45:31;8.82;89.66
43772;HTU21D;59066;54.782;32.024;2023-10-13T01:47:59;8.81;89.64
43772;HTU21D;59066;54.782;32.024;2023-10-13T01:50:29;8.78;89.83
43772;HTU21D;59066;54.782;32.024;2023-10-13T01:52:57;8.67;89.90
43772;HTU21D;59066;54.782;32.024;2023-10-13T01:55:40;8.66;89.96
43772;HTU21D;59066;54.782;32.024;2023-10-13T01:58:14;8.75;90.04
43772;HTU21D;59066;54.782;32.024;2023-10-13T02:00:43;8.77;89.82
43772;HTU21D;59066;54.782;32.024;2023-10-13T02:03:12;8.81;89.82
43772;HTU21D;59066;54.782;32.024;2023-10-13T02:05:47;8.65;89.69
43772;HTU21D;59066;54.782;32.024;2023-10-13T02:08:20;8.71;89.76
43772;HTU21D;59066;54.782;32.024;2023-10-13T02:10:54;8.76;89.66
43772;HTU21D;59066;54.782;32.024;2023-10-13T02:13:24;8.73;89.71
43772;HTU21D;59066;54.782;32.024;2023-10-13T02:15:57;8.71;89.25
43772;HTU21D;59066;54.782;32.024;2023-10-13T02:18:25;8.72;89.34
43772;HTU21D;59066;54.782;32.024;2023-10-13T02:21:03;8.78;88.97
43772;HTU21D;59066;54.782;32.024;2023-10-13T02:23:40;8.72;88.76
43772;HTU21D;59066;54.782;32.024;2023-10-13T02:26:30;8.71;88.78
43772;HTU21D;59066;54.782;32.024;2023-10-13T02:29:00;8.74;88.86
43772;HTU21D;59066;54.782;32.024;2023-10-13T02:31:35;8.76;88.84
43772;HTU21D;59066;54.782;32.024;2023-10-13T02:34:04;8.72;88.54
43772;HTU21D;59066;54.782;32.024;2023-10-13T02:36:36;8.70;88.54
43772;HTU21D;59066;54.782;32.024;2023-10-13T02:39:04;8.73;88.66
43772;HTU21D;59066;54.782;32.024;2023-10-13T02:41:35;8.70;88.46
43772;HTU21D;59066;54.782;32.024;2023-10-13T02:44:06;8.68;88.60
43772;HTU21D;59066;54.782;32.024;2023-10-13T02:46:35;8.65;88.51
43772;HTU21D;59066;54.782;32.024;2023-10-13T02:49:04;8.63;88.41
43772;HTU21D;59066;54.782;32.024;2023-10-13T02:51:43;8.63;88.68
43772;HTU21D;59066;54.782;32.024;2023-10-13T02:54:11;8.55;89.15
43772;HTU21D;59066;54.782;32.024;2023-10-13T02:56:46;8.52;89.12
43772;HTU21D;59066;54.782;32.024;2023-10-13T02:59:24;8.50;89.51
43772;HTU21D;59066;54.782;32.024;2023-10-13T03:02:08;8.47;89.31
43772;HTU21D;59066;54.782;32.024;2023-10-13T03:04:47;8.44;89.42
43772;HTU21D;59066;54.782;32.024;2023-10-13T03:07:15;8.41;89.77
43772;HTU21D;59066;54.782;32.024;2023-10-13T03:09:43;8.28;89.55
43772;HTU21D;59066;54.782;32.024;2023-10-13T03:12:19;8.37;90.04
43772;HTU21D;59066;54.782;32.024;2023-10-13T03:14:47;8.36;89.70
43772;HTU21D;59066;54.782;32.024;2023-10-13T03:17:15;8.30;89.99
43772;HTU21D;59066;54.782;32.024;2023-10-13T03:19:49;8.32;90.22
43772;HTU21D;59066;54.782;32.024;2023-10-13T03:22:18;8.33;90.40
43772;HTU21D;59066;54.782;32.024;2023-10-13T03:24:45;8.31;90.27
43772;HTU21D;59066;54.782;32.024;2023-10-13T03:27:16;8.31;90.36
43772;HTU21D;59066;54.782;32.024;2023-10-13T03:29:45;8.29;90.53
43772;HTU21D;59066;54.782;32.024;2023-10-13T03:32:22;8.30;90.34
43772;HTU21D;59066;54.782;32.024;2023-10-13T03:34:54;8.30;90.83
43772;HTU21D;59066;54.782;32.024;2023-10-13T03:37:28;8.29;90.92
43772;HTU21D;59066;54.782;32.024;2023-10-13T03:40:12;8.23;90.92
43772;HTU21D;59066;54.782;32.024;2023-10-13T03:43:01;8.26;91.06
43772;HTU21D;59066;54.782;32.024;2023-10-13T03:45:40;8.27;90.89
43772;HTU21D;59066;54.782;32.024;2023-10-13T03:48:13;8.26;90.89
43772;HTU21D;59066;54.782;32.024;2023-10-13T03:51:02;8.18;91.37
43772;HTU21D;59066;54.782;32.024;2023-10-13T03:53:37;8.15;91.34
43772;HTU21D;59066;54.782;32.024;2023-10-13T03:56:25;8.16;91.24
43772;HTU21D;59066;54.782;32.024;2023-10-13T03:58:58;8.09;91.59
43772;HTU21D;59066;54.782;32.024;2023-10-13T04:01:36;8.11;91.63
43772;HTU21D;59066;54.782;32.024;2023-10-13T04:04:19;8.16;91.72
43772;HTU21D;59066;54.782;32.024;2023-10-13T04:07:15;8.13;91.76
43772;HTU21D;59066;54.782;32.024;2023-10-13T04:10:02;8.14;91.69
43772;HTU21D;59066;54.782;32.024;2023-10-13T04:12:49;7.99;91.99
43772;HTU21D;59066;54.782;32.024;2023-10-13T04:15:36;7.94;92.16
43772;HTU21D;59066;54.782;32.024;2023-10-13T04:18:29;7.99;92.41
43772;HTU21D;59066;54.782;32.024;2023-10-13T04:21:17;7.94;92.32
43772;HTU21D;59066;54.782;32.024;2023-10-13T04:24:20;7.92;92.55
43772;HTU21D;59066;54.782;32.024;2023-10-13T04:27:05;7.90;92.44
43772;HTU21D;59066;54.782;32.024;2023-10-13T04:29:39;7.89;92.40
43772;HTU21D;59066;54.782;32.024;2023-10-13T04:32:37;7.85;92.32
43772;HTU21D;59066;54.782;32.024;2023-10-13T04:35:15;7.89;92.55
43772;HTU21D;59066;54.782;32.024;2023-10-13T04:37:43;7.78;92.45
43772;HTU21D;59066;54.782;32.024;2023-10-13T04:40:20;7.76;92.76
43772;HTU21D;59066;54.782;32.024;2023-10-13T04:43:02;7.72;92.79
43772;HTU21D;59066;54.782;32.024;2023-10-13T04:45:45;7.75;92.66
43772;HTU21D;59066;54.782;32.024;2023-10-13T04:48:22;7.75;93.01
43772;HTU21D;59066;54.782;32.024;2023-10-13T04:50:50;7.74;92.88
43772;HTU21D;59066;54.782;32.024;2023-10-13T04:53:18;7.74;92.65
43772;HTU21D;59066;54.782;32.024;2023-10-13T04:56:01;7.69;92.82
43772;HTU21D;59066;54.782;32.024;2023-10-13T04:58:29;7.76;93.04
43772;HTU21D;59066;54.782;32.024;2023-10-13T05:01:03;7.73;92.71
43772;HTU21D;59066;54.782;32.024;2023-10-13T05:03:50;7.73;92.95
43772;HTU21D;59066;54.782;32.024;2023-10-13T05:06:32;7.75;92.68
43772;HTU21D;59066;54.782;32.024;2023-10-13T05:09:09;7.76;92.63
43772;HTU21D;59066;54.782;32.024;2023-10-13T05:11:56;7.78;92.50
43772;HTU21D;59066;54.782;32.024;2023-10-13T05:14:42;7.82;92.38
43772;HTU21D;59066;54.782;32.024;2023-10-13T05:17:30;7.85;92.56
43772;HTU21D;59066;54.782;32.024;2023-10-13T05:20:17;7.90;92.20
43772;HTU21D;59066;54.782;32.024;2023-10-13T05:23:03;7.94;92.25
43772;HTU21D;59066;54.782;32.024;2023-10-13T05:25:49;8.01;92.00
43772;HTU21D;59066;54.782;32.024;2023-10-13T05:28:35;8.07;91.85
43772;HTU21D;59066;54.782;32.024;2023-10-13T05:31:21;8.15;91.62
43772;HTU21D;59066;54.782;32.024;2023-10-13T05:34:07;8.19;91.37
43772;HTU21D;59066;54.782;32.024;2023-10-13T05:36:53;8.31;91.48
43772;HTU21D;59066;54.782;32.024;2023-10-13T05:39:39;8.38;91.36
43772;HTU21D;59066;54.782;32.024;2023-10-13T05:42:25;8.44;91.50
43772;HTU21D;59066;54.782;32.024;2023-10-13T05:45:11;8.49;90.78
43772;HTU21D;59066;54.782;32.024;2023-10-13T05:47:44;8.48;89.91
43772;HTU21D;59066;54.782;32.024;2023-10-13T05:50:18;8.63;89.94
43772;HTU21D;59066;54.782;32.024;2023-10-13T05:52:49;8.71;89.99
43772;HTU21D;59066;54.782;32.024;2023-10-13T05:55:31;8.74;88.59
43772;HTU21D;59066;54.782;32.024;2023-10-13T05:58:17;8.73;88.51
43772;HTU21D;59066;54.782;32.024;2023-10-13T06:01:03;8.74;88.89
43772;HTU21D;59066;54.782;32.024;2023-10-13T06:03:49;8.83;88.47
43772;HTU21D;59066;54.782;32.024;2023-10-13T06:06:35;8.91;87.42
43772;HTU21D;59066;54.782;32.024;2023-10-13T06:09:23;9.03;87.48
43772;HTU21D;59066;54.782;32.024;2023-10-13T06:12:09;9.00;87.17
43772;HTU21D;59066;54.782;32.024;2023-10-13T06:14:54;9.08;87.27
43772;HTU21D;59066;54.782;32.024;2023-10-13T06:17:40;9.14;87.14
43772;HTU21D;59066;54.782;32.024;2023-10-13T06:20:26;9.17;86.64
43772;HTU21D;59066;54.782;32.024;2023-10-13T06:23:19;9.20;86.59
43772;HTU21D;59066;54.782;32.024;2023-10-13T06:26:13;9.21;86.85
43772;HTU21D;59066;54.782;32.024;2023-10-13T06:28:59;9.26;86.35
43772;HTU21D;59066;54.782;32.024;2023-10-13T06:31:27;9.25;86.51
43772;HTU21D;59066;54.782;32.024;2023-10-13T06:33:54;9.35;86.23
43772;HTU21D;59066;54.782;32.024;2023-10-13T06:36:23;9.47;85.79
43772;HTU21D;59066;54.782;32.024;2023-10-13T06:38:51;9.41;85.05
43772;HTU21D;59066;54.782;32.024;2023-10-13T06:41:38;9.46;85.39
43772;HTU21D;59066;54.782;32.024;2023-10-13T06:44:07;9.34;84.29
43772;HTU21D;59066;54.782;32.024;2023-10-13T06:46:42;9.46;84.94
43772;HTU21D;59066;54.782;32.024;2023-10-13T06:49:11;9.37;83.99
43772;HTU21D;59066;54.782;32.024;2023-10-13T06:51:40;9.35;84.53
43772;HTU21D;59066;54.782;32.024;2023-10-13T06:54:09;9.34;83.98
43772;HTU21D;59066;54.782;32.024;2023-10-13T06:56:39;9.38;83.97
43772;HTU21D;59066;54.782;32.024;2023-10-13T06:59:07;9.46;83.81
43772;HTU21D;59066;54.782;32.024;2023-10-13T07:01:34;9.49;84.00
43772;HTU21D;59066;54.782;32.024;2023-10-13T07:04:09;9.48;83.82
43772;HTU21D;59066;54.782;32.024;2023-10-13T07:06:44;9.54;83.07
43772;HTU21D;59066;54.782;32.024;2023-10-13T07:09:18;9.60;83.39
43772;HTU21D;59066;54.782;32.024;2023-10-13T07:12:07;9.66;83.28
43772;HTU21D;59066;54.782;32.024;2023-10-13T07:14:50;9.71;82.92
43772;HTU21D;59066;54.782;32.024;2023-10-13T07:17:20;9.72;81.24
43772;HTU21D;59066;54.782;32.024;2023-10-13T07:19:55;9.86;81.27
43772;HTU21D;59066;54.782;32.024;2023-10-13T07:22:42;9.89;80.91
43772;HTU21D;59066;54.782;32.024;2023-10-13T07:25:22;9.91;80.78
43772;HTU21D;59066;54.782;32.024;2023-10-13T07:27:52;10.01;81.56
43772;HTU21D;59066;54.782;32.024;2023-10-13T07:30:21;10.08;80.68
43772;HTU21D;59066;54.782;32.024;2023-10-13T07:32:55;10.14;81.21
43772;HTU21D;59066;54.782;32.024;2023-10-13T07:35:27;10.11;79.03
43772;HTU21D;59066;54.782;32.024;2023-10-13T07:37:58;10.00;78.94
43772;HTU21D;59066;54.782;32.024;2023-10-13T07:40:27;10.01;80.16
43772;HTU21D;59066;54.782;32.024;2023-10-13T07:42:57;10.13;79.07
43772;HTU21D;59066;54.782;32.024;2023-10-13T07:45:38;10.20;79.60
43772;HTU21D;59066;54.782;32.024;2023-10-13T07:48:09;10.31;79.65
43772;HTU21D;59066;54.782;32.024;2023-10-13T07:50:44;10.37;79.34
43772;HTU21D;59066;54.782;32.024;2023-10-13T07:53:13;10.49;79.12
43772;HTU21D;59066;54.782;32.024;2023-10-13T07:55:47;10.53;78.27
43772;HTU21D;59066;54.782;32.024;2023-10-13T07:58:14;10.45;77.64
43772;HTU21D;59066;54.782;32.024;2023-10-13T08:00:42;10.43;77.76
43772;HTU21D;59066;54.782;32.024;2023-10-13T08:03:15;10.45;77.03
43772;HTU21D;59066;54.782;32.024;2023-10-13T08:05:43;10.45;77.72
43772;HTU21D;59066;54.782;32.024;2023-10-13T08:08:25;10.59;77.74
43772;HTU21D;59066;54.782;32.024;2023-10-13T08:10:53;10.59;76.61
43772;HTU21D;59066;54.782;32.024;2023-10-13T08:13:28;10.41;76.31
43772;HTU21D;59066;54.782;32.024;2023-10-13T08:15:55;10.36;76.72
43772;HTU21D;59066;54.782;32.024;2023-10-13T08:18:28;10.34;76.46
43772;HTU21D;59066;54.782;32.024;2023-10-13T08:21:01;10.43;76.96
43772;HTU21D;59066;54.782;32.024;2023-10-13T08:23:32;10.37;75.95
43772;HTU21D;59066;54.782;32.024;2023-10-13T08:26:28;10.35;76.06
43772;HTU21D;59066;54.782;32.024;2023-10-13T08:28:59;10.27;76.41
43772;HTU21D;59066;54.782;32.024;2023-10-13T08:31:54;10.36;76.99
43772;HTU21D;59066;54.782;32.024;2023-10-13T08:34:40;10.35;76.89
43772;HTU21D;59066;54.782;32.024;2023-10-13T08:37:10;10.39;76.75
43772;HTU21D;59066;54.782;32.024;2023-10-13T08:39:54;10.46;76.20
43772;HTU21D;59066;54.782;32.024;2023-10-13T08:42:38;10.45;76.55
43772;HTU21D;59066;54.782;32.024;2023-10-13T08:45:09;10.43;76.55
43772;HTU21D;59066;54.782;32.024;2023-10-13T08:47:59;10.53;76.61
43772;HTU21D;59066;54.782;32.024;2023-10-13T08:50:49;10.57;76.12
43772;HTU21D;59066;54.782;32.024;2023-10-13T08:53:36;10.62;75.83
43772;HTU21D;59066;54.782;32.024;2023-10-13T08:56:14;10.46;75.00
43772;HTU21D;59066;54.782;32.024;2023-10-13T08:58:49;10.64;75.02
43772;HTU21D;59066;54.782;32.024;2023-10-13T09:04:14;10.90;74.68
43772;HTU21D;59066;54.782;32.024;2023-10-13T09:07:02;11.17;74.99
43772;HTU21D;59066;54.782;32.024;2023-10-13T09:12:21;11.57;72.90
43772;HTU21D;59066;54.782;32.024;2023-10-13T09:15:09;11.49;72.55
43772;HTU21D;59066;54.782;32.024;2023-10-13T09:17:45;11.48;71.55
43772;HTU21D;59066;54.782;32.024;2023-10-13T09:20:15;11.44;71.67
43772;HTU21D;59066;54.782;32.024;2023-10-13T09:28:14;11.49;71.68
43772;HTU21D;59066;54.782;32.024;2023-10-13T09:30:45;11.57;71.52
43772;HTU21D;59066;54.782;32.024;2023-10-13T09:33:13;11.64;70.12
43772;HTU21D;59066;54.782;32.024;2023-10-13T09:35:48;11.81;70.97
43772;HTU21D;59066;54.782;32.024;2023-10-13T09:38:18;11.97;70.27
43772;HTU21D;59066;54.782;32.024;2023-10-13T09:40:46;12.00;68.77
43772;HTU21D;59066;54.782;32.024;2023-10-13T09:43:17;12.06;68.94
43772;HTU21D;59066;54.782;32.024;2023-10-13T09:45:49;12.08;68.83
43772;HTU21D;59066;54.782;32.024;2023-10-13T09:48:45;12.28;68.77
43772;HTU21D;59066;54.782;32.024;2023-10-13T09:51:31;12.48;68.26
43772;HTU21D;59066;54.782;32.024;2023-10-13T09:54:09;12.60;66.51
43772;HTU21D;59066;54.782;32.024;2023-10-13T09:56:48;12.94;67.86
43772;HTU21D;59066;54.782;32.024;2023-10-13T09:59:24;13.14;64.95
43772;HTU21D;59066;54.782;32.024;2023-10-13T10:02:04;13.14;63.60
43772;HTU21D;59066;54.782;32.024;2023-10-13T10:04:53;13.43;61.94
43772;HTU21D;59066;54.782;32.024;2023-10-13T10:07:27;13.61;63.10
43772;HTU21D;59066;54.782;32.024;2023-10-13T10:10:01;13.73;63.53
43772;HTU21D;59066;54.782;32.024;2023-10-13T10:12:45;13.83;63.44
43772;HTU21D;59066;54.782;32.024;2023-10-13T10:15:31;14.01;60.68
43772;HTU21D;59066;54.782;32.024;2023-10-13T10:18:03;14.07;59.74
43772;HTU21D;59066;54.782;32.024;2023-10-13T10:20:35;14.18;60.41
43772;HTU21D;59066;54.782;32.024;2023-10-13T10:23:27;14.57;60.69
43772;HTU21D;59066;54.782;32.024;2023-10-13T10:25:57;14.79;59.80
43772;HTU21D;59066;54.782;32.024;2023-10-13T10:28:37;15.18;57.27
43772;HTU21D;59066;54.782;32.024;2023-10-13T10:31:06;15.55;56.94
43772;HTU21D;59066;54.782;32.024;2023-10-13T10:33:36;15.71;57.03
43772;HTU21D;59066;54.782;32.024;2023-10-13T10:36:04;16.31;57.26
43772;HTU21D;59066;54.782;32.024;2023-10-13T10:38:32;17.29;57.93
43772;HTU21D;59066;54.782;32.024;2023-10-13T10:41:05;18.20;54.44
43772;HTU21D;59066;54.782;32.024;2023-10-13T10:48:42;19.66;49.44
43772;HTU21D;59066;54.782;32.024;2023-10-13T10:51:14;19.56;44.00
43772;HTU21D;59066;54.782;32.024;2023-10-13T10:53:49;19.61;41.61
43772;HTU21D;59066;54.782;32.024;2023-10-13T10:56:22;19.70;44.88
43772;HTU21D;59066;54.782;32.024;2023-10-13T10:59:07;20.12;41.90
43772;HTU21D;59066;54.782;32.024;2023-10-13T11:01:47;19.71;39.73
43772;HTU21D;59066;54.782;32.024;2023-10-13T11:04:15;19.86;41.31
43772;HTU21D;59066;54.782;32.024;2023-10-13T11:06:51;20.16;39.81
43772;HTU21D;59066;54.782;32.024;2023-10-13T11:09:30;20.13;39.55
43772;HTU21D;59066;54.782;32.024;2023-10-13T11:12:14;20.78;36.89
43772;HTU21D;59066;54.782;32.024;2023-10-13T11:15:04;21.02;37.78
43772;HTU21D;59066;54.782;32.024;2023-10-13T11:17:41;21.42;35.87
43772;HTU21D;59066;54.782;32.024;2023-10-13T11:20:17;21.34;35.28
43772;HTU21D;59066;54.782;32.024;2023-10-13T11:22:46;21.68;33.47
43772;HTU21D;59066;54.782;32.024;2023-10-13T11:25:29;21.14;32.57
43772;HTU21D;59066;54.782;32.024;2023-10-13T11:28:15;20.90;33.42
43772;HTU21D;59066;54.782;32.024;2023-10-13T11:30:55;20.90;33.49
43772;HTU21D;59066;54.782;32.024;2023-10-13T11:33:27;20.07;35.41
43772;HTU21D;59066;54.782;32.024;2023-10-13T11:35:57;20.01;35.16
43772;HTU21D;59066;54.782;32.024;2023-10-13T11:38:32;19.80;34.46
43772;HTU21D;59066;54.782;32.024;2023-10-13T11:41:15;19.62;34.69
43772;HTU21D;59066;54.782;32.024;2023-10-13T11:43:48;20.03;34.58
43772;HTU21D;59066;54.782;32.024;2023-10-13T11:46:27;20.14;33.60
43772;HTU21D;59066;54.782;32.024;2023-10-13T11:49:07;19.76;34.12
43772;HTU21D;59066;54.782;32.024;2023-10-13T11:51:55;19.97;34.41
43772;HTU21D;59066;54.782;32.024;2023-10-13T11:54:35;19.99;34.01
43772;HTU21D;59066;54.782;32.024;2023-10-13T11:57:09;19.97;33.91
43772;HTU21D;59066;54.782;32.024;2023-10-13T11:59:36;19.99;34.23
43772;HTU21D;59066;54.782;32.024;2023-10-13T12:02:08;19.95;33.28
43772;HTU21D;59066;54.782;32.024;2023-10-13T12:04:39;19.92;34.93
43772;HTU21D;59066;54.782;32.024;2023-10-13T12:07:26;19.83;34.96
43772;HTU21D;59066;54.782;32.024;2023-10-13T12:10:07;20.01;35.23
43772;HTU21D;59066;54.782;32.024;2023-10-13T12:12:42;19.53;34.66
43772;HTU21D;59066;54.782;32.024;2023-10-13T12:15:12;19.26;35.11
43772;HTU21D;59066;54.782;32.024;2023-10-13T12:17:53;18.48;34.66
43772;HTU21D;59066;54.782;32.024;2023-10-13T12:20:26;17.83;35.54
43772;HTU21D;59066;54.782;32.024;2023-10-13T12:23:00;17.10;36.69
43772;HTU21D;59066;54.782;32.024;2023-10-13T12:25:40;16.51;37.66
43772;HTU21D;59066;54.782;32.024;2023-10-13T12:28:25;16.16;38.46
43772;HTU21D;59066;54.782;32.024;2023-10-13T12:30:56;15.81;38.98
43772;HTU21D;59066;54.782;32.024;2023-10-13T12:33:31;15.67;39.43
43772;HTU21D;59066;54.782;32.024;2023-10-13T12:36:04;15.59;39.80
43772;HTU21D;59066;54.782;32.024;2023-10-13T12:38:41;15.47;40.39
43772;HTU21D;59066;54.782;32.024;2023-10-13T12:41:15;15.36;40.59
43772;HTU21D;59066;54.782;32.024;2023-10-13T12:44:03;15.32;40.91
43772;HTU21D;59066;54.782;32.024;2023-10-13T12:46:53;15.49;41.15
43772;HTU21D;59066;54.782;32.024;2023-10-13T12:49:39;15.37;41.72
43772;HTU21D;59066;54.782;32.024;2023-10-13T12:52:12;15.03;42.65
43772;HTU21D;59066;54.782;32.024;2023-10-13T12:54:59;14.74;42.93
43772;HTU21D;59066;54.782;32.024;2023-10-13T12:57:34;14.56;43.87
43772;HTU21D;59066;54.782;32.024;2023-10-13T13:00:02;14.40;44.35
43772;HTU21D;59066;54.782;32.024;2023-10-13T13:02:43;14.35;45.04
43772;HTU21D;59066;54.782;32.024;2023-10-13T13:05:11;14.36;45.15
43772;HTU21D;59066;54.782;32.024;2023-10-13T13:07:40;14.43;44.94
43772;HTU21D;59066;54.782;32.024;2023-10-13T13:10:19;14.33;45.41
43772;HTU21D;59066;54.782;32.024;2023-10-13T13:12:48;14.29;45.86
43772;HTU21D;59066;54.782;32.024;2023-10-13T13:15:16;14.27;46.31
43772;HTU21D;59066;54.782;32.024;2023-10-13T13:17:50;14.57;46.19
43772;HTU21D;59066;54.782;32.024;2023-10-13T13:20:18;14.97;46.44
43772;HTU21D;59066;54.782;32.024;2023-10-13T13:22:56;15.31;46.07
43772;HTU21D;59066;54.782;32.024;2023-10-13T13:25:30;15.48;46.25
43772;HTU21D;59066;54.782;32.024;2023-10-13T13:27:58;15.75;45.80
43772;HTU21D;59066;54.782;32.024;2023-10-13T13:30:32;15.41;46.38
43772;HTU21D;59066;54.782;32.024;2023-10-13T13:33:02;15.19;47.39
43772;HTU21D;59066;54.782;32.024;2023-10-13T13:35:33;14.78;48.49
43772;HTU21D;59066;54.782;32.024;2023-10-13T13:38:02;14.85;48.85
43772;HTU21D;59066;54.782;32.024;2023-10-13T13:40:49;14.98;48.69
43772;HTU21D;59066;54.782;32.024;2023-10-13T13:43:16;15.12;48.54
43772;HTU21D;59066;54.782;32.024;2023-10-13T13:46:07;15.24;48.28
43772;HTU21D;59066;54.782;32.024;2023-10-13T13:48:39;14.92;48.47
43772;HTU21D;59066;54.782;32.024;2023-10-13T13:51:08;14.70;48.69
43772;HTU21D;59066;54.782;32.024;2023-10-13T13:53:42;14.59;48.58
43772;HTU21D;59066;54.782;32.024;2023-10-13T13:56:12;14.60;48.52
43772;HTU21D;59066;54.782;32.024;2023-10-13T13:58:48;14.82;48.44
43772;HTU21D;59066;54.782;32.024;2023-10-13T14:01:20;14.94;47.97
43772;HTU21D;59066;54.782;32.024;2023-10-13T14:03:53;14.88;48.13
43772;HTU21D;59066;54.782;32.024;2023-10-13T14:06:24;14.87;48.13
43772;HTU21D;59066;54.782;32.024;2023-10-13T14:08:58;14.83;48.31
43772;HTU21D;59066;54.782;32.024;2023-10-13T14:11:49;15.02;48.15
43772;HTU21D;59066;54.782;32.024;2023-10-13T14:14:34;15.31;47.75
43772;HTU21D;59066;54.782;32.024;2023-10-13T14:17:02;15.60;46.91
43772;HTU21D;59066;54.782;32.024;2023-10-13T14:19:35;15.43;47.11
43772;HTU21D;59066;54.782;32.024;2023-10-13T14:22:08;15.11;47.53
43772;HTU21D;59066;54.782;32.024;2023-10-13T14:24:40;14.89;48.02
43772;HTU21D;59066;54.782;32.024;2023-10-13T14:27:12;14.60;48.60
43772;HTU21D;59066;54.782;32.024;2023-10-13T14:29:41;14.27;49.21
43772;HTU21D;59066;54.782;32.024;2023-10-13T14:32:13;14.01;49.79
43772;HTU21D;59066;54.782;32.024;2023-10-13T14:34:44;13.95;50.00
43772;HTU21D;59066;54.782;32.024;2023-10-13T14:37:12;13.75;50.22
43772;HTU21D;59066;54.782;32.024;2023-10-13T14:39:54;13.52;50.63
43772;HTU21D;59066;54.782;32.024;2023-10-13T14:42:25;13.48;50.95
43772;HTU21D;59066;54.782;32.024;2023-10-13T14:44:53;13.27;51.97
43772;HTU21D;59066;54.782;32.024;2023-10-13T14:47:26;13.09;52.38
43772;HTU21D;59066;54.782;32.024;2023-10-13T14:49:55;12.85;52.85
43772;HTU21D;59066;54.782;32.024;2023-10-13T14:52:23;12.74;52.69
43772;HTU21D;59066;54.782;32.024;2023-10-13T14:54:50;12.57;53.60
43772;HTU21D;59066;54.782;32.024;2023-10-13T14:57:22;12.52;53.39
43772;HTU21D;59066;54.782;32.024;2023-10-13T14:59:53;12.42;53.90
43772;HTU21D;59066;54.782;32.024;2023-10-13T15:02:21;12.35;54.29
43772;HTU21D;59066;54.782;32.024;2023-10-13T15:04:50;12.21;54.56
43772;HTU21D;59066;54.782;32.024;2023-10-13T15:07:18;12.12;55.52
43772;HTU21D;59066;54.782;32.024;2023-10-13T15:09:47;12.00;55.44
43772;HTU21D;59066;54.782;32.024;2023-10-13T15:12:14;11.99;56.32
43772;HTU21D;59066;54.782;32.024;2023-10-13T15:14:48;11.92;56.72
43772;HTU21D;59066;54.782;32.024;2023-10-13T15:17:15;11.78;56.86
43772;HTU21D;59066;54.782;32.024;2023-10-13T15:19:43;11.71;57.14
43772;HTU21D;59066;54.782;32.024;2023-10-13T15:22:11;11.67;57.87
43772;HTU21D;59066;54.782;32.024;2023-10-13T15:24:49;11.60;57.63
43772;HTU21D;59066;54.782;32.024;2023-10-13T15:27:36;11.55;58.60
43772;HTU21D;59066;54.782;32.024;2023-10-13T15:30:09;11.51;59.04
43772;HTU21D;59066;54.782;32.024;2023-10-13T15:32:47;11.45;58.67
43772;HTU21D;59066;54.782;32.024;2023-10-13T15:35:16;11.41;59.70
43772;HTU21D;59066;54.782;32.024;2023-10-13T15:37:44;11.39;59.30
43772;HTU21D;59066;54.782;32.024;2023-10-13T15:40:14;11.30;59.70
43772;HTU21D;59066;54.782;32.024;2023-10-13T15:42:44;11.27;59.57
43772;HTU21D;59066;54.782;32.024;2023-10-13T15:45:13;11.20;60.03
43772;HTU21D;59066;54.782;32.024;2023-10-13T15:47:47;11.10;60.88
43772;HTU21D;59066;54.782;32.024;2023-10-13T15:50:17;11.03;60.70
43772;HTU21D;59066;54.782;32.024;2023-10-13T15:52:49;11.02;60.74
43772;HTU21D;59066;54.782;32.024;2023-10-13T15:55:17;11.01;61.37
43772;HTU21D;59066;54.782;32.024;2023-10-13T15:57:45;10.97;61.47
43772;HTU21D;59066;54.782;32.024;2023-10-13T16:00:20;10.93;61.72
43772;HTU21D;59066;54.782;32.024;2023-10-13T16:02:52;10.98;61.38
43772;HTU21D;59066;54.782;32.024;2023-10-13T16:05:29;10.96;62.14
43772;HTU21D;59066;54.782;32.024;2023-10-13T16:07:57;10.85;62.75
43772;HTU21D;59066;54.782;32.024;2023-10-13T16:10:24;10.80;62.68
43772;HTU21D;59066;54.782;32.024;2023-10-13T16:12:54;10.80;62.74
43772;HTU21D;59066;54.782;32.024;2023-10-13T16:15:22;10.75;63.28